sensor_id;sensor_type;location;lat;lon;timestamp;temperature;humidity
14873;DHT22;7528;48.576;19.122;2023-05-15T00:00:27;15.40;93.40
14873;DHT22;7528;48.576;19.122;2023-05-15T00:05:32;15.40;93.30
14873;DHT22;7528;48.576;19.122;2023-05-15T00:10:34;15.40;93.30
14873;DHT22;7528;48.576;19.122;2023-05-15T00:15:36;15.40;93.50
14873;DHT22;7528;48.576;19.122;2023-05-15T00:20:40;15.40;93.60
14873;DHT22;7528;48.576;19.122;2023-05-15T00:25:43;15.40;93.70
14873;DHT22;7528;48.576;19.122;2023-05-15T00:30:45;15.40;93.80
14873;DHT22;7528;48.576;19.122;2023-05-15T00:35:49;15.40;93.80
14873;DHT22;7528;48.576;19.122;2023-05-15T00:40:53;15.30;93.80
14873;DHT22;7528;48.576;19.122;2023-05-15T00:45:57;15.40;94.00
14873;DHT22;7528;48.576;19.122;2023-05-15T00:51:01;15.40;94.00
14873;DHT22;7528;48.576;19.122;2023-05-15T00:56:05;15.40;94.00
14873;DHT22;7528;48.576;19.122;2023-05-15T01:01:07;15.40;94.20
14873;DHT22;7528;48.576;19.122;2023-05-15T01:06:12;15.40;94.10
14873;DHT22;7528;48.576;19.122;2023-05-15T01:11:16;15.30;94.20
14873;DHT22;7528;48.576;19.122;2023-05-15T01:16:20;15.30;94.20
14873;DHT22;7528;48.576;19.122;2023-05-15T01:21:49;15.30;94.20
14873;DHT22;7528;48.576;19.122;2023-05-15T01:27:07;15.30;94.40
14873;DHT22;7528;48.576;19.122;2023-05-15T01:32:13;15.30;94.30
14873;DHT22;7528;48.576;19.122;2023-05-15T01:37:23;15.30;94.60
14873;DHT22;7528;48.576;19.122;2023-05-15T01:42:31;15.40;94.40
14873;DHT22;7528;48.576;19.122;2023-05-15T01:47:38;15.40;94.20
14873;DHT22;7528;48.576;19.122;2023-05-15T01:52:43;15.50;94.20
14873;DHT22;7528;48.576;19.122;2023-05-15T01:57:49;15.50;94.10
14873;DHT22;7528;48.576;19.122;2023-05-15T02:02:53;15.40;94.30
14873;DHT22;7528;48.576;19.122;2023-05-15T02:07:56;15.40;94.40
14873;DHT22;7528;48.576;19.122;2023-05-15T02:13:00;15.40;94.30
14873;DHT22;7528;48.576;19.122;2023-05-15T02:18:04;15.40;94.40
14873;DHT22;7528;48.576;19.122;2023-05-15T02:23:06;15.40;94.50
14873;DHT22;7528;48.576;19.122;2023-05-15T02:28:21;15.40;94.40
14873;DHT22;7528;48.576;19.122;2023-05-15T02:33:30;15.40;94.40
14873;DHT22;7528;48.576;19.122;2023-05-15T02:38:39;15.40;94.50
14873;DHT22;7528;48.576;19.122;2023-05-15T02:43:45;15.40;94.50
14873;DHT22;7528;48.576;19.122;2023-05-15T02:48:50;15.30;94.70
14873;DHT22;7528;48.576;19.122;2023-05-15T02:53:54;15.30;94.80
14873;DHT22;7528;48.576;19.122;2023-05-15T02:58:58;15.40;94.70
14873;DHT22;7528;48.576;19.122;2023-05-15T03:04:00;15.40;94.50
14873;DHT22;7528;48.576;19.122;2023-05-15T03:09:03;15.40;94.60
14873;DHT22;7528;48.576;19.122;2023-05-15T03:14:07;15.40;94.70
14873;DHT22;7528;48.576;19.122;2023-05-15T03:19:10;15.40;94.70
14873;DHT22;7528;48.576;19.122;2023-05-15T03:24:12;15.50;94.80
14873;DHT22;7528;48.576;19.122;2023-05-15T03:29:16;15.50;94.40
14873;DHT22;7528;48.576;19.122;2023-05-15T03:34:18;15.50;94.60
14873;DHT22;7528;48.576;19.122;2023-05-15T03:39:21;15.60;94.70
14873;DHT22;7528;48.576;19.122;2023-05-15T03:44:25;15.60;94.50
14873;DHT22;7528;48.576;19.122;2023-05-15T03:49:27;15.60;94.20
14873;DHT22;7528;48.576;19.122;2023-05-15T03:54:30;15.60;94.30
14873;DHT22;7528;48.576;19.122;2023-05-15T03:59:34;15.60;94.50
14873;DHT22;7528;48.576;19.122;2023-05-15T04:04:37;15.60;94.60
14873;DHT22;7528;48.576;19.122;2023-05-15T04:09:39;15.50;94.30
14873;DHT22;7528;48.576;19.122;2023-05-15T04:14:43;15.50;94.60
14873;DHT22;7528;48.576;19.122;2023-05-15T04:19:45;15.60;94.70
14873;DHT22;7528;48.576;19.122;2023-05-15T04:24:48;15.60;94.90
14873;DHT22;7528;48.576;19.122;2023-05-15T04:29:51;15.60;95.00
14873;DHT22;7528;48.576;19.122;2023-05-15T04:34:54;15.60;94.80
14873;DHT22;7528;48.576;19.122;2023-05-15T04:39:56;15.70;95.00
14873;DHT22;7528;48.576;19.122;2023-05-15T04:45:00;15.70;95.00
14873;DHT22;7528;48.576;19.122;2023-05-15T04:50:03;15.80;95.30
14873;DHT22;7528;48.576;19.122;2023-05-15T04:55:07;15.80;95.10
14873;DHT22;7528;48.576;19.122;2023-05-15T05:00:14;15.90;95.20
14873;DHT22;7528;48.576;19.122;2023-05-15T05:05:17;15.90;95.00
14873;DHT22;7528;48.576;19.122;2023-05-15T05:10:19;15.90;94.80
14873;DHT22;7528;48.576;19.122;2023-05-15T05:15:23;15.90;95.10
14873;DHT22;7528;48.576;19.122;2023-05-15T05:20:26;16.00;94.80
14873;DHT22;7528;48.576;19.122;2023-05-15T05:25:29;16.00;94.50
14873;DHT22;7528;48.576;19.122;2023-05-15T05:30:32;16.00;94.40
14873;DHT22;7528;48.576;19.122;2023-05-15T05:35:35;16.10;95.20
14873;DHT22;7528;48.576;19.122;2023-05-15T05:40:37;16.20;94.90
14873;DHT22;7528;48.576;19.122;2023-05-15T05:45:41;16.30;94.70
14873;DHT22;7528;48.576;19.122;2023-05-15T05:50:44;16.30;94.60
14873;DHT22;7528;48.576;19.122;2023-05-15T05:55:46;16.40;94.00
14873;DHT22;7528;48.576;19.122;2023-05-15T06:00:50;16.40;93.60
14873;DHT22;7528;48.576;19.122;2023-05-15T06:05:52;16.40;93.30
14873;DHT22;7528;48.576;19.122;2023-05-15T06:10:55;16.40;93.60
14873;DHT22;7528;48.576;19.122;2023-05-15T06:15:59;16.40;93.80
14873;DHT22;7528;48.576;19.122;2023-05-15T06:21:01;16.50;93.90
14873;DHT22;7528;48.576;19.122;2023-05-15T06:26:04;16.50;93.80
14873;DHT22;7528;48.576;19.122;2023-05-15T06:31:09;16.60;94.00
14873;DHT22;7528;48.576;19.122;2023-05-15T06:36:11;16.60;93.60
14873;DHT22;7528;48.576;19.122;2023-05-15T06:41:14;16.70;93.90
14873;DHT22;7528;48.576;19.122;2023-05-15T06:46:18;16.80;93.90
14873;DHT22;7528;48.576;19.122;2023-05-15T06:51:20;16.80;92.90
14873;DHT22;7528;48.576;19.122;2023-05-15T06:56:22;16.90;92.40
14873;DHT22;7528;48.576;19.122;2023-05-15T07:01:30;16.90;92.50
14873;DHT22;7528;48.576;19.122;2023-05-15T07:06:33;16.80;92.20
14873;DHT22;7528;48.576;19.122;2023-05-15T07:11:37;16.90;92.50
14873;DHT22;7528;48.576;19.122;2023-05-15T07:16:43;16.90;93.10
14873;DHT22;7528;48.576;19.122;2023-05-15T07:21:47;16.90;92.60
14873;DHT22;7528;48.576;19.122;2023-05-15T07:26:49;16.90;92.90
14873;DHT22;7528;48.576;19.122;2023-05-15T07:31:53;16.90;92.70
14873;DHT22;7528;48.576;19.122;2023-05-15T07:36:56;16.90;93.10
14873;DHT22;7528;48.576;19.122;2023-05-15T07:41:58;16.90;93.50
14873;DHT22;7528;48.576;19.122;2023-05-15T07:47:03;16.90;93.70
14873;DHT22;7528;48.576;19.122;2023-05-15T07:52:09;17.00;94.10
14873;DHT22;7528;48.576;19.122;2023-05-15T07:57:12;17.10;93.00
14873;DHT22;7528;48.576;19.122;2023-05-15T08:02:17;17.00;92.50
14873;DHT22;7528;48.576;19.122;2023-05-15T08:07:19;17.10;92.50
14873;DHT22;7528;48.576;19.122;2023-05-15T08:12:22;17.20;92.60
14873;DHT22;7528;48.576;19.122;2023-05-15T08:17:26;17.30;91.90
14873;DHT22;7528;48.576;19.122;2023-05-15T08:22:29;17.40;92.60
14873;DHT22;7528;48.576;19.122;2023-05-15T08:27:31;17.40;92.10
14873;DHT22;7528;48.576;19.122;2023-05-15T08:32:35;17.40;92.00
14873;DHT22;7528;48.576;19.122;2023-05-15T08:37:38;17.60;92.90
14873;DHT22;7528;48.576;19.122;2023-05-15T08:42:43;17.70;92.40
14873;DHT22;7528;48.576;19.122;2023-05-15T08:47:48;17.90;92.60
14873;DHT22;7528;48.576;19.122;2023-05-15T08:52:51;18.10;91.90
14873;DHT22;7528;48.576;19.122;2023-05-15T08:57:58;18.20;90.10
14873;DHT22;7528;48.576;19.122;2023-05-15T09:03:02;18.30;90.00
14873;DHT22;7528;48.576;19.122;2023-05-15T09:08:06;18.40;86.20
14873;DHT22;7528;48.576;19.122;2023-05-15T09:13:10;18.30;85.80
14873;DHT22;7528;48.576;19.122;2023-05-15T09:18:14;18.40;87.20
14873;DHT22;7528;48.576;19.122;2023-05-15T09:23:24;18.60;89.40
14873;DHT22;7528;48.576;19.122;2023-05-15T09:28:29;18.80;88.40
14873;DHT22;7528;48.576;19.122;2023-05-15T09:33:35;18.90;85.90
14873;DHT22;7528;48.576;19.122;2023-05-15T09:38:40;19.00;87.10
14873;DHT22;7528;48.576;19.122;2023-05-15T09:43:43;18.90;87.50
14873;DHT22;7528;48.576;19.122;2023-05-15T09:48:47;18.80;88.80
14873;DHT22;7528;48.576;19.122;2023-05-15T09:53:51;18.90;88.70
14873;DHT22;7528;48.576;19.122;2023-05-15T09:58:55;18.90;89.00
14873;DHT22;7528;48.576;19.122;2023-05-15T10:04:00;18.90;88.30
14873;DHT22;7528;48.576;19.122;2023-05-15T10:09:03;19.00;85.30
14873;DHT22;7528;48.576;19.122;2023-05-15T10:14:08;19.10;82.30
14873;DHT22;7528;48.576;19.122;2023-05-15T10:19:12;19.10;81.10
14873;DHT22;7528;48.576;19.122;2023-05-15T10:24:15;19.30;82.60
14873;DHT22;7528;48.576;19.122;2023-05-15T10:29:21;19.30;80.00
14873;DHT22;7528;48.576;19.122;2023-05-15T10:34:28;19.50;82.60
14873;DHT22;7528;48.576;19.122;2023-05-15T10:39:30;19.90;79.70
14873;DHT22;7528;48.576;19.122;2023-05-15T10:44:33;20.00;75.00
14873;DHT22;7528;48.576;19.122;2023-05-15T10:49:37;19.90;73.90
14873;DHT22;7528;48.576;19.122;2023-05-15T10:54:40;20.00;74.30
14873;DHT22;7528;48.576;19.122;2023-05-15T10:59:42;20.00;70.50
14873;DHT22;7528;48.576;19.122;2023-05-15T11:04:46;19.80;70.10
14873;DHT22;7528;48.576;19.122;2023-05-15T11:09:49;19.80;71.80
14873;DHT22;7528;48.576;19.122;2023-05-15T11:15:17;19.70;73.40
14873;DHT22;7528;48.576;19.122;2023-05-15T11:20:31;19.90;69.40
14873;DHT22;7528;48.576;19.122;2023-05-15T11:25:35;20.20;67.90
14873;DHT22;7528;48.576;19.122;2023-05-15T11:30:39;20.50;67.50
14873;DHT22;7528;48.576;19.122;2023-05-15T11:35:46;20.40;63.30
14873;DHT22;7528;48.576;19.122;2023-05-15T11:40:50;20.50;65.90
14873;DHT22;7528;48.576;19.122;2023-05-15T11:45:56;20.60;66.00
14873;DHT22;7528;48.576;19.122;2023-05-15T11:51:01;20.90;64.60
14873;DHT22;7528;48.576;19.122;2023-05-15T11:56:04;21.00;61.10
14873;DHT22;7528;48.576;19.122;2023-05-15T12:01:09;21.00;63.50
14873;DHT22;7528;48.576;19.122;2023-05-15T12:06:13;21.10;62.00
14873;DHT22;7528;48.576;19.122;2023-05-15T12:11:16;20.90;64.30
14873;DHT22;7528;48.576;19.122;2023-05-15T12:16:22;21.00;61.30
14873;DHT22;7528;48.576;19.122;2023-05-15T12:21:27;21.10;60.10
14873;DHT22;7528;48.576;19.122;2023-05-15T12:26:29;21.40;59.50
14873;DHT22;7528;48.576;19.122;2023-05-15T12:31:33;21.70;60.30
14873;DHT22;7528;48.576;19.122;2023-05-15T12:36:40;21.80;59.80
14873;DHT22;7528;48.576;19.122;2023-05-15T12:41:43;21.70;59.70
14873;DHT22;7528;48.576;19.122;2023-05-15T12:46:46;21.60;58.30
14873;DHT22;7528;48.576;19.122;2023-05-15T12:51:50;21.40;59.60
14873;DHT22;7528;48.576;19.122;2023-05-15T12:56:52;21.40;60.10
14873;DHT22;7528;48.576;19.122;2023-05-15T13:01:55;21.40;58.60
14873;DHT22;7528;48.576;19.122;2023-05-15T13:06:59;21.30;60.00
14873;DHT22;7528;48.576;19.122;2023-05-15T13:12:01;21.30;60.00
14873;DHT22;7528;48.576;19.122;2023-05-15T13:17:05;21.40;59.10
14873;DHT22;7528;48.576;19.122;2023-05-15T13:22:09;21.50;58.20
14873;DHT22;7528;48.576;19.122;2023-05-15T13:27:12;21.50;58.60
14873;DHT22;7528;48.576;19.122;2023-05-15T13:32:14;21.40;58.90
14873;DHT22;7528;48.576;19.122;2023-05-15T13:37:18;21.30;58.40
14873;DHT22;7528;48.576;19.122;2023-05-15T13:42:20;21.10;58.60
14873;DHT22;7528;48.576;19.122;2023-05-15T13:47:23;20.90;59.80
14873;DHT22;7528;48.576;19.122;2023-05-15T13:52:28;20.80;61.90
14873;DHT22;7528;48.576;19.122;2023-05-15T13:57:31;20.60;63.90
14873;DHT22;7528;48.576;19.122;2023-05-15T14:02:34;20.60;65.60
14873;DHT22;7528;48.576;19.122;2023-05-15T14:07:38;20.70;64.30
14873;DHT22;7528;48.576;19.122;2023-05-15T14:12:40;20.70;62.70
14873;DHT22;7528;48.576;19.122;2023-05-15T14:17:43;20.90;63.70
14873;DHT22;7528;48.576;19.122;2023-05-15T14:22:49;20.80;60.60
14873;DHT22;7528;48.576;19.122;2023-05-15T14:27:52;20.80;61.30
14873;DHT22;7528;48.576;19.122;2023-05-15T14:32:57;20.80;60.70
14873;DHT22;7528;48.576;19.122;2023-05-15T14:38:03;20.90;61.40
14873;DHT22;7528;48.576;19.122;2023-05-15T14:43:10;20.80;60.60
14873;DHT22;7528;48.576;19.122;2023-05-15T14:48:12;20.80;60.20
14873;DHT22;7528;48.576;19.122;2023-05-15T14:53:16;20.90;62.90
14873;DHT22;7528;48.576;19.122;2023-05-15T14:58:22;20.90;61.20
14873;DHT22;7528;48.576;19.122;2023-05-15T15:03:25;21.00;61.10
14873;DHT22;7528;48.576;19.122;2023-05-15T15:08:29;20.90;61.70
14873;DHT22;7528;48.576;19.122;2023-05-15T15:13:32;20.80;62.90
14873;DHT22;7528;48.576;19.122;2023-05-15T15:18:34;20.70;62.00
14873;DHT22;7528;48.576;19.122;2023-05-15T15:23:38;20.60;62.60
14873;DHT22;7528;48.576;19.122;2023-05-15T15:28:42;20.50;62.50
14873;DHT22;7528;48.576;19.122;2023-05-15T15:33:44;20.60;63.10
14873;DHT22;7528;48.576;19.122;2023-05-15T15:38:50;20.60;62.40
14873;DHT22;7528;48.576;19.122;2023-05-15T15:43:53;20.70;63.40
14873;DHT22;7528;48.576;19.122;2023-05-15T15:48:55;20.90;60.80
14873;DHT22;7528;48.576;19.122;2023-05-15T15:53:59;21.00;61.00
14873;DHT22;7528;48.576;19.122;2023-05-15T15:59:01;20.90;59.30
14873;DHT22;7528;48.576;19.122;2023-05-15T16:04:04;20.80;59.80
14873;DHT22;7528;48.576;19.122;2023-05-15T16:09:08;20.70;60.10
14873;DHT22;7528;48.576;19.122;2023-05-15T16:14:10;20.80;62.10
14873;DHT22;7528;48.576;19.122;2023-05-15T16:19:13;20.80;59.30
14873;DHT22;7528;48.576;19.122;2023-05-15T16:24:17;20.70;59.80
14873;DHT22;7528;48.576;19.122;2023-05-15T16:29:25;20.60;59.70
14873;DHT22;7528;48.576;19.122;2023-05-15T16:34:30;20.60;59.20
14873;DHT22;7528;48.576;19.122;2023-05-15T16:39:35;20.50;59.10
14873;DHT22;7528;48.576;19.122;2023-05-15T16:44:38;20.50;59.60
14873;DHT22;7528;48.576;19.122;2023-05-15T16:49:42;20.40;60.30
14873;DHT22;7528;48.576;19.122;2023-05-15T16:54:47;20.40;60.10
14873;DHT22;7528;48.576;19.122;2023-05-15T16:59:51;20.30;61.70
14873;DHT22;7528;48.576;19.122;2023-05-15T17:04:53;20.20;63.40
14873;DHT22;7528;48.576;19.122;2023-05-15T17:09:57;20.00;63.50
14873;DHT22;7528;48.576;19.122;2023-05-15T17:15:00;19.90;63.70
14873;DHT22;7528;48.576;19.122;2023-05-15T17:20:05;19.80;63.60
14873;DHT22;7528;48.576;19.122;2023-05-15T17:25:10;19.70;64.30
14873;DHT22;7528;48.576;19.122;2023-05-15T17:30:12;19.50;64.50
14873;DHT22;7528;48.576;19.122;2023-05-15T17:35:15;19.40;65.40
14873;DHT22;7528;48.576;19.122;2023-05-15T17:40:20;19.20;65.40
14873;DHT22;7528;48.576;19.122;2023-05-15T17:45:22;19.10;65.00
14873;DHT22;7528;48.576;19.122;2023-05-15T17:50:26;19.00;64.20
14873;DHT22;7528;48.576;19.122;2023-05-15T17:55:30;18.90;65.10
14873;DHT22;7528;48.576;19.122;2023-05-15T18:00:32;18.80;66.30
14873;DHT22;7528;48.576;19.122;2023-05-15T18:05:35;18.60;67.20
14873;DHT22;7528;48.576;19.122;2023-05-15T18:10:39;18.50;68.00
14873;DHT22;7528;48.576;19.122;2023-05-15T18:15:42;18.30;69.50
14873;DHT22;7528;48.576;19.122;2023-05-15T18:20:44;18.20;70.40
14873;DHT22;7528;48.576;19.122;2023-05-15T18:25:49;18.10;70.70
14873;DHT22;7528;48.576;19.122;2023-05-15T18:30:51;18.00;71.40
14873;DHT22;7528;48.576;19.122;2023-05-15T18:35:54;17.80;72.10
14873;DHT22;7528;48.576;19.122;2023-05-15T18:40:58;17.70;72.40
14873;DHT22;7528;48.576;19.122;2023-05-15T18:46:00;17.60;72.40
14873;DHT22;7528;48.576;19.122;2023-05-15T18:51:03;17.50;72.70
14873;DHT22;7528;48.576;19.122;2023-05-15T18:56:06;17.40;73.00
14873;DHT22;7528;48.576;19.122;2023-05-15T19:01:09;17.30;73.80
14873;DHT22;7528;48.576;19.122;2023-05-15T19:06:11;17.10;74.30
14873;DHT22;7528;48.576;19.122;2023-05-15T19:11:20;17.00;74.60
14873;DHT22;7528;48.576;19.122;2023-05-15T19:16:23;16.90;74.80
14873;DHT22;7528;48.576;19.122;2023-05-15T19:21:28;16.80;74.80
14873;DHT22;7528;48.576;19.122;2023-05-15T19:26:32;16.70;74.80
14873;DHT22;7528;48.576;19.122;2023-05-15T19:31:35;16.60;74.80
14873;DHT22;7528;48.576;19.122;2023-05-15T19:36:38;16.50;75.20
14873;DHT22;7528;48.576;19.122;2023-05-15T19:41:42;16.40;75.20
14873;DHT22;7528;48.576;19.122;2023-05-15T19:46:46;16.40;75.60
14873;DHT22;7528;48.576;19.122;2023-05-15T19:51:48;16.40;75.80
14873;DHT22;7528;48.576;19.122;2023-05-15T19:56:52;16.40;75.90
14873;DHT22;7528;48.576;19.122;2023-05-15T20:01:56;16.30;76.20
14873;DHT22;7528;48.576;19.122;2023-05-15T20:06:58;16.20;76.60
14873;DHT22;7528;48.576;19.122;2023-05-15T20:12:02;16.10;77.00
14873;DHT22;7528;48.576;19.122;2023-05-15T20:17:06;16.00;76.90
14873;DHT22;7528;48.576;19.122;2023-05-15T20:22:08;15.90;77.50
14873;DHT22;7528;48.576;19.122;2023-05-15T20:27:13;15.80;77.70
14873;DHT22;7528;48.576;19.122;2023-05-15T20:32:15;15.80;77.90
14873;DHT22;7528;48.576;19.122;2023-05-15T20:37:17;15.70;77.60
14873;DHT22;7528;48.576;19.122;2023-05-15T20:42:22;15.70;77.80
14873;DHT22;7528;48.576;19.122;2023-05-15T20:47:24;15.60;78.30
14873;DHT22;7528;48.576;19.122;2023-05-15T20:52:27;15.50;78.30
14873;DHT22;7528;48.576;19.122;2023-05-15T20:57:31;15.40;78.10
14873;DHT22;7528;48.576;19.122;2023-05-15T21:02:33;15.30;78.50
14873;DHT22;7528;48.576;19.122;2023-05-15T21:07:36;15.30;78.80
14873;DHT22;7528;48.576;19.122;2023-05-15T21:12:40;15.20;79.20
14873;DHT22;7528;48.576;19.122;2023-05-15T21:17:42;15.20;79.00
14873;DHT22;7528;48.576;19.122;2023-05-15T21:22:45;15.20;78.70
14873;DHT22;7528;48.576;19.122;2023-05-15T21:27:49;15.20;79.30
14873;DHT22;7528;48.576;19.122;2023-05-15T21:32:51;15.20;79.10
14873;DHT22;7528;48.576;19.122;2023-05-15T21:37:54;15.10;79.10
14873;DHT22;7528;48.576;19.122;2023-05-15T21:42:58;15.00;79.50
14873;DHT22;7528;48.576;19.122;2023-05-15T21:48:00;14.90;80.00
14873;DHT22;7528;48.576;19.122;2023-05-15T21:53:02;14.80;80.40
14873;DHT22;7528;48.576;19.122;2023-05-15T21:58:06;14.80;80.40
14873;DHT22;7528;48.576;19.122;2023-05-15T22:03:08;14.80;80.20
14873;DHT22;7528;48.576;19.122;2023-05-15T22:08:11;14.70;80.00
14873;DHT22;7528;48.576;19.122;2023-05-15T22:13:15;14.70;79.80
14873;DHT22;7528;48.576;19.122;2023-05-15T22:18:17;14.60;80.20
14873;DHT22;7528;48.576;19.122;2023-05-15T22:23:21;14.60;80.10
14873;DHT22;7528;48.576;19.122;2023-05-15T22:28:24;14.50;80.00
14873;DHT22;7528;48.576;19.122;2023-05-15T22:33:27;14.50;80.50
14873;DHT22;7528;48.576;19.122;2023-05-15T22:38:29;14.40;80.70
14873;DHT22;7528;48.576;19.122;2023-05-15T22:43:33;14.40;80.90
14873;DHT22;7528;48.576;19.122;2023-05-15T22:48:36;14.30;80.90
14873;DHT22;7528;48.576;19.122;2023-05-15T22:53:39;14.30;81.10
14873;DHT22;7528;48.576;19.122;2023-05-15T22:58:43;14.20;80.90
14873;DHT22;7528;48.576;19.122;2023-05-15T23:03:45;14.20;80.90
14873;DHT22;7528;48.576;19.122;2023-05-15T23:08:48;14.20;80.60
14873;DHT22;7528;48.576;19.122;2023-05-15T23:13:52;14.20;80.80
14873;DHT22;7528;48.576;19.122;2023-05-15T23:18:55;14.20;81.20
14873;DHT22;7528;48.576;19.122;2023-05-15T23:23:58;14.10;81.60
14873;DHT22;7528;48.576;19.122;2023-05-15T23:29:02;14.00;81.30
14873;DHT22;7528;48.576;19.122;2023-05-15T23:34:04;14.00;81.60
14873;DHT22;7528;48.576;19.122;2023-05-15T23:39:07;14.00;81.80
14873;DHT22;7528;48.576;19.122;2023-05-15T23:44:11;14.00;82.30
14873;DHT22;7528;48.576;19.122;2023-05-15T23:49:13;14.00;82.80
14873;DHT22;7528;48.576;19.122;2023-05-15T23:54:16;14.00;83.10
14873;DHT22;7528;48.576;19.122;2023-05-15T23:59:20;13.90;83.70
